sensor_id;sensor_type;location;lat;lon;timestamp;P1;durP1;ratioP1;P2;durP2;ratioP2
1128;SDS011;553;51.038;7.216;2023-12-20T00:01:01;64.70;;;26.90;;
1128;SDS011;553;51.038;7.216;2023-12-20T00:03:28;58.33;;;25.33;;
1128;SDS011;553;51.038;7.216;2023-12-20T00:06:07;40.50;;;22.40;;
1128;SDS011;553;51.038;7.216;2023-12-20T00:08:34;43.73;;;21.40;;
1128;SDS011;553;51.038;7.216;2023-12-20T00:11:00;39.57;;;21.10;;
1128;SDS011;553;51.038;7.216;2023-12-20T00:13:27;38.07;;;21.00;;
1128;SDS011;553;51.038;7.216;2023-12-20T00:15:54;39.13;;;19.43;;
1128;SDS011;553;51.038;7.216;2023-12-20T00:18:20;37.77;;;19.67;;
1128;SDS011;553;51.038;7.216;2023-12-20T00:20:47;33.53;;;18.03;;
1128;SDS011;553;51.038;7.216;2023-12-20T00:23:14;31.93;;;19.30;;
1128;SDS011;553;51.038;7.216;2023-12-20T00:25:41;31.47;;;16.93;;
1128;SDS011;553;51.038;7.216;2023-12-20T00:28:08;37.80;;;19.20;;
1128;SDS011;553;51.038;7.216;2023-12-20T00:30:34;29.47;;;17.60;;
1128;SDS011;553;51.038;7.216;2023-12-20T00:33:03;30.73;;;16.03;;
1128;SDS011;553;51.038;7.216;2023-12-20T00:35:30;30.60;;;14.70;;
1128;SDS011;553;51.038;7.216;2023-12-20T00:37:58;23.90;;;13.43;;
1128;SDS011;553;51.038;7.216;2023-12-20T00:40:25;16.37;;;9.37;;
1128;SDS011;553;51.038;7.216;2023-12-20T00:42:51;12.50;;;6.10;;
1128;SDS011;553;51.038;7.216;2023-12-20T00:45:18;8.40;;;4.10;;
1128;SDS011;553;51.038;7.216;2023-12-20T00:47:45;10.70;;;5.70;;
1128;SDS011;553;51.038;7.216;2023-12-20T00:50:13;10.10;;;5.87;;
1128;SDS011;553;51.038;7.216;2023-12-20T00:52:39;9.63;;;4.67;;
1128;SDS011;553;51.038;7.216;2023-12-20T00:55:06;12.90;;;4.60;;
1128;SDS011;553;51.038;7.216;2023-12-20T00:57:34;12.30;;;5.07;;
1128;SDS011;553;51.038;7.216;2023-12-20T01:00:01;12.00;;;4.63;;
1128;SDS011;553;51.038;7.216;2023-12-20T01:02:29;8.93;;;6.30;;
1128;SDS011;553;51.038;7.216;2023-12-20T01:04:56;11.00;;;5.67;;
1128;SDS011;553;51.038;7.216;2023-12-20T01:07:22;14.40;;;7.40;;
1128;SDS011;553;51.038;7.216;2023-12-20T01:09:49;12.83;;;7.40;;
1128;SDS011;553;51.038;7.216;2023-12-20T01:12:16;13.80;;;8.10;;
1128;SDS011;553;51.038;7.216;2023-12-20T01:14:43;18.37;;;7.80;;
1128;SDS011;553;51.038;7.216;2023-12-20T01:17:09;19.33;;;9.37;;
1128;SDS011;553;51.038;7.216;2023-12-20T01:19:36;20.80;;;10.47;;
1128;SDS011;553;51.038;7.216;2023-12-20T01:22:03;21.93;;;12.57;;
1128;SDS011;553;51.038;7.216;2023-12-20T01:24:30;25.20;;;11.07;;
1128;SDS011;553;51.038;7.216;2023-12-20T01:26:57;27.90;;;11.30;;
1128;SDS011;553;51.038;7.216;2023-12-20T01:29:24;23.37;;;11.10;;
1128;SDS011;553;51.038;7.216;2023-12-20T01:31:50;23.83;;;11.20;;
1128;SDS011;553;51.038;7.216;2023-12-20T01:34:18;28.63;;;12.17;;
1128;SDS011;553;51.038;7.216;2023-12-20T01:36:45;24.53;;;12.03;;
1128;SDS011;553;51.038;7.216;2023-12-20T01:39:11;22.90;;;11.70;;
1128;SDS011;553;51.038;7.216;2023-12-20T01:41:53;24.80;;;11.53;;
1128;SDS011;553;51.038;7.216;2023-12-20T01:44:19;30.60;;;13.00;;
1128;SDS011;553;51.038;7.216;2023-12-20T01:46:46;28.93;;;12.00;;
1128;SDS011;553;51.038;7.216;2023-12-20T01:49:14;25.10;;;11.00;;
1128;SDS011;553;51.038;7.216;2023-12-20T01:51:42;23.33;;;12.33;;
1128;SDS011;553;51.038;7.216;2023-12-20T01:54:09;25.43;;;11.83;;
1128;SDS011;553;51.038;7.216;2023-12-20T01:56:36;27.47;;;13.43;;
1128;SDS011;553;51.038;7.216;2023-12-20T01:59:04;27.47;;;13.73;;
1128;SDS011;553;51.038;7.216;2023-12-20T02:01:33;26.47;;;12.77;;
1128;SDS011;553;51.038;7.216;2023-12-20T02:04:00;30.00;;;14.80;;
1128;SDS011;553;51.038;7.216;2023-12-20T02:06:29;28.97;;;14.60;;
1128;SDS011;553;51.038;7.216;2023-12-20T02:08:59;32.77;;;14.83;;
1128;SDS011;553;51.038;7.216;2023-12-20T02:11:26;40.77;;;14.83;;
1128;SDS011;553;51.038;7.216;2023-12-20T02:13:53;33.73;;;16.63;;
1128;SDS011;553;51.038;7.216;2023-12-20T02:16:21;32.10;;;15.77;;
1128;SDS011;553;51.038;7.216;2023-12-20T02:18:48;33.63;;;15.03;;
1128;SDS011;553;51.038;7.216;2023-12-20T02:21:15;34.43;;;15.90;;
1128;SDS011;553;51.038;7.216;2023-12-20T02:23:42;31.83;;;15.33;;
1128;SDS011;553;51.038;7.216;2023-12-20T02:26:09;25.97;;;12.90;;
1128;SDS011;553;51.038;7.216;2023-12-20T02:28:36;29.20;;;15.53;;
1128;SDS011;553;51.038;7.216;2023-12-20T02:31:03;30.87;;;16.60;;
1128;SDS011;553;51.038;7.216;2023-12-20T02:33:30;30.73;;;16.23;;
1128;SDS011;553;51.038;7.216;2023-12-20T02:35:56;31.23;;;15.43;;
1128;SDS011;553;51.038;7.216;2023-12-20T02:38:23;27.17;;;15.30;;
1128;SDS011;553;51.038;7.216;2023-12-20T02:40:50;29.37;;;15.13;;
1128;SDS011;553;51.038;7.216;2023-12-20T02:43:16;37.03;;;16.87;;
1128;SDS011;553;51.038;7.216;2023-12-20T02:45:43;23.90;;;12.43;;
1128;SDS011;553;51.038;7.216;2023-12-20T02:48:10;24.37;;;13.53;;
1128;SDS011;553;51.038;7.216;2023-12-20T02:50:37;23.03;;;13.27;;
1128;SDS011;553;51.038;7.216;2023-12-20T02:53:03;27.20;;;14.00;;
1128;SDS011;553;51.038;7.216;2023-12-20T02:55:30;32.80;;;12.17;;
1128;SDS011;553;51.038;7.216;2023-12-20T02:57:57;25.97;;;12.03;;
1128;SDS011;553;51.038;7.216;2023-12-20T03:00:24;34.03;;;14.50;;
1128;SDS011;553;51.038;7.216;2023-12-20T03:02:51;27.37;;;13.70;;
1128;SDS011;553;51.038;7.216;2023-12-20T03:05:17;28.23;;;12.50;;
1128;SDS011;553;51.038;7.216;2023-12-20T03:07:44;31.73;;;14.20;;
1128;SDS011;553;51.038;7.216;2023-12-20T03:10:12;37.13;;;15.90;;
1128;SDS011;553;51.038;7.216;2023-12-20T03:12:49;30.33;;;13.10;;
1128;SDS011;553;51.038;7.216;2023-12-20T03:15:16;31.63;;;13.53;;
1128;SDS011;553;51.038;7.216;2023-12-20T03:17:43;27.30;;;12.83;;
1128;SDS011;553;51.038;7.216;2023-12-20T03:20:10;26.20;;;13.03;;
1128;SDS011;553;51.038;7.216;2023-12-20T03:22:37;30.80;;;14.10;;
1128;SDS011;553;51.038;7.216;2023-12-20T03:25:05;33.53;;;13.40;;
1128;SDS011;553;51.038;7.216;2023-12-20T03:27:31;28.90;;;12.30;;
1128;SDS011;553;51.038;7.216;2023-12-20T03:29:58;28.17;;;11.20;;
1128;SDS011;553;51.038;7.216;2023-12-20T03:32:25;22.13;;;11.07;;
1128;SDS011;553;51.038;7.216;2023-12-20T03:34:52;25.67;;;9.70;;
1128;SDS011;553;51.038;7.216;2023-12-20T03:37:19;25.80;;;9.63;;
1128;SDS011;553;51.038;7.216;2023-12-20T03:39:46;25.17;;;9.80;;
1128;SDS011;553;51.038;7.216;2023-12-20T03:42:12;32.33;;;8.30;;
1128;SDS011;553;51.038;7.216;2023-12-20T03:44:39;26.90;;;8.40;;
1128;SDS011;553;51.038;7.216;2023-12-20T03:47:06;17.73;;;6.10;;
1128;SDS011;553;51.038;7.216;2023-12-20T03:49:33;31.90;;;8.17;;
1128;SDS011;553;51.038;7.216;2023-12-20T03:52:03;24.47;;;7.23;;
1128;SDS011;553;51.038;7.216;2023-12-20T03:54:30;20.97;;;8.27;;
1128;SDS011;553;51.038;7.216;2023-12-20T03:56:57;14.50;;;7.27;;
1128;SDS011;553;51.038;7.216;2023-12-20T03:59:23;20.23;;;7.37;;
1128;SDS011;553;51.038;7.216;2023-12-20T04:01:50;18.50;;;6.90;;
1128;SDS011;553;51.038;7.216;2023-12-20T04:04:17;22.83;;;7.50;;
1128;SDS011;553;51.038;7.216;2023-12-20T04:06:44;18.00;;;7.23;;
1128;SDS011;553;51.038;7.216;2023-12-20T04:09:11;22.23;;;8.23;;
1128;SDS011;553;51.038;7.216;2023-12-20T04:11:38;20.70;;;9.23;;
1128;SDS011;553;51.038;7.216;2023-12-20T04:14:05;29.70;;;7.23;;
1128;SDS011;553;51.038;7.216;2023-12-20T04:16:31;17.00;;;7.97;;
1128;SDS011;553;51.038;7.216;2023-12-20T04:18:58;21.30;;;9.30;;
1128;SDS011;553;51.038;7.216;2023-12-20T04:21:25;17.90;;;7.00;;
1128;SDS011;553;51.038;7.216;2023-12-20T04:23:51;19.20;;;8.10;;
1128;SDS011;553;51.038;7.216;2023-12-20T04:26:18;21.53;;;9.60;;
1128;SDS011;553;51.038;7.216;2023-12-20T04:28:45;19.77;;;8.60;;
1128;SDS011;553;51.038;7.216;2023-12-20T04:31:12;15.43;;;7.10;;
1128;SDS011;553;51.038;7.216;2023-12-20T04:33:39;22.07;;;10.07;;
1128;SDS011;553;51.038;7.216;2023-12-20T04:36:06;27.73;;;8.30;;
1128;SDS011;553;51.038;7.216;2023-12-20T04:38:35;20.80;;;7.40;;
1128;SDS011;553;51.038;7.216;2023-12-20T04:41:01;28.63;;;9.03;;
1128;SDS011;553;51.038;7.216;2023-12-20T04:43:29;29.37;;;8.47;;
1128;SDS011;553;51.038;7.216;2023-12-20T04:45:56;25.83;;;7.77;;
1128;SDS011;553;51.038;7.216;2023-12-20T04:48:22;16.93;;;7.80;;
1128;SDS011;553;51.038;7.216;2023-12-20T04:50:49;17.43;;;6.50;;
1128;SDS011;553;51.038;7.216;2023-12-20T04:53:16;22.37;;;8.00;;
1128;SDS011;553;51.038;7.216;2023-12-20T04:55:42;22.83;;;9.03;;
1128;SDS011;553;51.038;7.216;2023-12-20T04:58:10;21.23;;;7.90;;
1128;SDS011;553;51.038;7.216;2023-12-20T05:00:37;27.63;;;10.27;;
1128;SDS011;553;51.038;7.216;2023-12-20T05:03:03;23.43;;;10.50;;
1128;SDS011;553;51.038;7.216;2023-12-20T05:05:31;26.70;;;11.97;;
1128;SDS011;553;51.038;7.216;2023-12-20T05:07:58;32.43;;;11.70;;
1128;SDS011;553;51.038;7.216;2023-12-20T05:10:25;26.03;;;10.70;;
1128;SDS011;553;51.038;7.216;2023-12-20T05:12:53;20.70;;;9.90;;
1128;SDS011;553;51.038;7.216;2023-12-20T05:15:20;25.60;;;10.00;;
1128;SDS011;553;51.038;7.216;2023-12-20T05:17:46;22.33;;;10.40;;
1128;SDS011;553;51.038;7.216;2023-12-20T05:20:14;25.20;;;10.10;;
1128;SDS011;553;51.038;7.216;2023-12-20T05:22:41;31.43;;;11.00;;
1128;SDS011;553;51.038;7.216;2023-12-20T05:25:07;28.10;;;9.87;;
1128;SDS011;553;51.038;7.216;2023-12-20T05:27:34;23.47;;;11.10;;
1128;SDS011;553;51.038;7.216;2023-12-20T05:30:01;25.83;;;10.90;;
1128;SDS011;553;51.038;7.216;2023-12-20T05:32:28;30.70;;;11.93;;
1128;SDS011;553;51.038;7.216;2023-12-20T05:34:55;30.53;;;12.47;;
1128;SDS011;553;51.038;7.216;2023-12-20T05:37:21;29.00;;;11.27;;
1128;SDS011;553;51.038;7.216;2023-12-20T05:39:48;26.70;;;11.87;;
1128;SDS011;553;51.038;7.216;2023-12-20T05:42:15;31.60;;;11.03;;
1128;SDS011;553;51.038;7.216;2023-12-20T05:44:42;21.73;;;8.93;;
1128;SDS011;553;51.038;7.216;2023-12-20T05:47:09;20.73;;;10.10;;
1128;SDS011;553;51.038;7.216;2023-12-20T05:49:36;27.67;;;10.50;;
1128;SDS011;553;51.038;7.216;2023-12-20T05:52:02;30.77;;;12.80;;
1128;SDS011;553;51.038;7.216;2023-12-20T05:54:29;27.07;;;11.30;;
1128;SDS011;553;51.038;7.216;2023-12-20T05:56:56;31.70;;;12.50;;
1128;SDS011;553;51.038;7.216;2023-12-20T05:59:23;26.53;;;11.57;;
1128;SDS011;553;51.038;7.216;2023-12-20T06:01:50;25.13;;;12.17;;
1128;SDS011;553;51.038;7.216;2023-12-20T06:04:17;27.93;;;11.17;;
1128;SDS011;553;51.038;7.216;2023-12-20T06:06:45;29.20;;;13.27;;
1128;SDS011;553;51.038;7.216;2023-12-20T06:09:12;31.90;;;14.47;;
1128;SDS011;553;51.038;7.216;2023-12-20T06:11:38;35.23;;;13.43;;
1128;SDS011;553;51.038;7.216;2023-12-20T06:14:05;33.93;;;10.97;;
1128;SDS011;553;51.038;7.216;2023-12-20T06:16:32;26.37;;;13.30;;
1128;SDS011;553;51.038;7.216;2023-12-20T06:18:58;26.83;;;11.70;;
1128;SDS011;553;51.038;7.216;2023-12-20T06:21:25;25.53;;;11.77;;
1128;SDS011;553;51.038;7.216;2023-12-20T06:23:52;29.77;;;13.27;;
1128;SDS011;553;51.038;7.216;2023-12-20T06:26:19;25.83;;;11.63;;
1128;SDS011;553;51.038;7.216;2023-12-20T06:28:45;35.47;;;12.67;;
1128;SDS011;553;51.038;7.216;2023-12-20T06:31:12;30.23;;;11.77;;
1128;SDS011;553;51.038;7.216;2023-12-20T06:33:39;28.07;;;11.00;;
1128;SDS011;553;51.038;7.216;2023-12-20T06:36:07;33.53;;;14.60;;
1128;SDS011;553;51.038;7.216;2023-12-20T06:38:36;29.73;;;12.43;;
1128;SDS011;553;51.038;7.216;2023-12-20T06:41:03;31.20;;;12.50;;
1128;SDS011;553;51.038;7.216;2023-12-20T06:43:30;21.93;;;10.67;;
1128;SDS011;553;51.038;7.216;2023-12-20T06:46:14;28.20;;;13.33;;
1128;SDS011;553;51.038;7.216;2023-12-20T06:48:41;23.73;;;10.10;;
1128;SDS011;553;51.038;7.216;2023-12-20T06:51:10;25.83;;;10.87;;
1128;SDS011;553;51.038;7.216;2023-12-20T06:53:41;25.80;;;10.50;;
1128;SDS011;553;51.038;7.216;2023-12-20T06:56:08;33.23;;;11.03;;
1128;SDS011;553;51.038;7.216;2023-12-20T06:58:36;33.07;;;11.17;;
1128;SDS011;553;51.038;7.216;2023-12-20T07:01:03;25.93;;;10.60;;
1128;SDS011;553;51.038;7.216;2023-12-20T07:03:31;21.00;;;9.50;;
1128;SDS011;553;51.038;7.216;2023-12-20T07:05:58;22.60;;;10.00;;
1128;SDS011;553;51.038;7.216;2023-12-20T07:08:25;21.37;;;10.53;;
1128;SDS011;553;51.038;7.216;2023-12-20T07:10:52;33.87;;;10.90;;
1128;SDS011;553;51.038;7.216;2023-12-20T07:13:19;28.30;;;9.23;;
1128;SDS011;553;51.038;7.216;2023-12-20T07:15:45;27.27;;;9.17;;
1128;SDS011;553;51.038;7.216;2023-12-20T07:18:12;18.30;;;9.33;;
1128;SDS011;553;51.038;7.216;2023-12-20T07:20:39;23.80;;;9.03;;
1128;SDS011;553;51.038;7.216;2023-12-20T07:23:06;28.13;;;9.67;;
1128;SDS011;553;51.038;7.216;2023-12-20T07:25:32;25.00;;;9.30;;
1128;SDS011;553;51.038;7.216;2023-12-20T07:27:59;25.17;;;9.03;;
1128;SDS011;553;51.038;7.216;2023-12-20T07:30:26;22.70;;;7.10;;
1128;SDS011;553;51.038;7.216;2023-12-20T07:32:53;25.40;;;11.43;;
1128;SDS011;553;51.038;7.216;2023-12-20T07:35:20;21.17;;;9.30;;
1128;SDS011;553;51.038;7.216;2023-12-20T07:37:47;18.27;;;8.10;;
1128;SDS011;553;51.038;7.216;2023-12-20T07:40:14;17.47;;;7.83;;
1128;SDS011;553;51.038;7.216;2023-12-20T07:42:43;17.20;;;7.30;;
1128;SDS011;553;51.038;7.216;2023-12-20T07:45:10;13.13;;;6.23;;
1128;SDS011;553;51.038;7.216;2023-12-20T07:47:37;27.00;;;7.10;;
1128;SDS011;553;51.038;7.216;2023-12-20T07:50:04;23.93;;;7.93;;
1128;SDS011;553;51.038;7.216;2023-12-20T07:52:31;19.17;;;7.53;;
1128;SDS011;553;51.038;7.216;2023-12-20T07:54:58;25.17;;;8.83;;
1128;SDS011;553;51.038;7.216;2023-12-20T07:57:28;19.70;;;7.63;;
1128;SDS011;553;51.038;7.216;2023-12-20T07:59:55;23.77;;;8.17;;
1128;SDS011;553;51.038;7.216;2023-12-20T08:02:22;20.80;;;8.67;;
1128;SDS011;553;51.038;7.216;2023-12-20T08:04:48;22.37;;;7.70;;
1128;SDS011;553;51.038;7.216;2023-12-20T08:07:15;17.53;;;7.30;;
1128;SDS011;553;51.038;7.216;2023-12-20T08:09:42;26.57;;;8.40;;
1128;SDS011;553;51.038;7.216;2023-12-20T08:12:10;25.00;;;7.37;;
1128;SDS011;553;51.038;7.216;2023-12-20T08:14:37;21.27;;;7.90;;
1128;SDS011;553;51.038;7.216;2023-12-20T08:17:04;29.53;;;9.00;;
1128;SDS011;553;51.038;7.216;2023-12-20T08:19:31;21.50;;;7.97;;
1128;SDS011;553;51.038;7.216;2023-12-20T08:21:58;20.40;;;9.07;;
1128;SDS011;553;51.038;7.216;2023-12-20T08:24:24;25.33;;;9.73;;
1128;SDS011;553;51.038;7.216;2023-12-20T08:26:51;18.40;;;8.80;;
1128;SDS011;553;51.038;7.216;2023-12-20T08:29:18;29.10;;;10.20;;
1128;SDS011;553;51.038;7.216;2023-12-20T08:31:45;23.83;;;8.23;;
1128;SDS011;553;51.038;7.216;2023-12-20T08:34:13;19.00;;;7.13;;
1128;SDS011;553;51.038;7.216;2023-12-20T08:36:41;24.23;;;8.50;;
1128;SDS011;553;51.038;7.216;2023-12-20T08:39:08;21.03;;;10.83;;
1128;SDS011;553;51.038;7.216;2023-12-20T08:41:35;24.33;;;10.17;;
1128;SDS011;553;51.038;7.216;2023-12-20T08:44:01;25.10;;;10.10;;
1128;SDS011;553;51.038;7.216;2023-12-20T08:46:28;20.93;;;9.67;;
1128;SDS011;553;51.038;7.216;2023-12-20T08:48:55;20.73;;;9.00;;
1128;SDS011;553;51.038;7.216;2023-12-20T08:51:23;24.30;;;9.53;;
1128;SDS011;553;51.038;7.216;2023-12-20T08:53:51;15.60;;;8.13;;
1128;SDS011;553;51.038;7.216;2023-12-20T08:56:18;18.93;;;8.30;;
1128;SDS011;553;51.038;7.216;2023-12-20T08:58:46;22.47;;;9.13;;
1128;SDS011;553;51.038;7.216;2023-12-20T09:01:13;22.63;;;8.50;;
1128;SDS011;553;51.038;7.216;2023-12-20T09:03:41;22.63;;;8.70;;
1128;SDS011;553;51.038;7.216;2023-12-20T09:06:08;27.10;;;8.57;;
1128;SDS011;553;51.038;7.216;2023-12-20T09:08:35;21.73;;;7.60;;
1128;SDS011;553;51.038;7.216;2023-12-20T09:11:02;36.83;;;10.33;;
1128;SDS011;553;51.038;7.216;2023-12-20T09:13:29;25.00;;;9.47;;
1128;SDS011;553;51.038;7.216;2023-12-20T09:15:58;23.67;;;9.27;;
1128;SDS011;553;51.038;7.216;2023-12-20T09:18:25;24.50;;;9.57;;
1128;SDS011;553;51.038;7.216;2023-12-20T09:20:51;25.23;;;9.93;;
1128;SDS011;553;51.038;7.216;2023-12-20T09:23:18;18.63;;;9.00;;
1128;SDS011;553;51.038;7.216;2023-12-20T09:25:45;20.93;;;9.13;;
1128;SDS011;553;51.038;7.216;2023-12-20T09:28:12;28.00;;;9.13;;
1128;SDS011;553;51.038;7.216;2023-12-20T09:30:38;25.47;;;8.03;;
1128;SDS011;553;51.038;7.216;2023-12-20T09:33:06;20.00;;;7.20;;
1128;SDS011;553;51.038;7.216;2023-12-20T09:35:34;17.87;;;7.57;;
1128;SDS011;553;51.038;7.216;2023-12-20T09:38:01;14.63;;;6.70;;
1128;SDS011;553;51.038;7.216;2023-12-20T09:40:28;15.20;;;6.53;;
1128;SDS011;553;51.038;7.216;2023-12-20T09:42:59;17.10;;;7.43;;
1128;SDS011;553;51.038;7.216;2023-12-20T09:45:31;17.93;;;6.40;;
1128;SDS011;553;51.038;7.216;2023-12-20T09:47:58;32.57;;;9.10;;
1128;SDS011;553;51.038;7.216;2023-12-20T09:50:26;21.93;;;8.13;;
1128;SDS011;553;51.038;7.216;2023-12-20T09:52:53;18.17;;;6.57;;
1128;SDS011;553;51.038;7.216;2023-12-20T09:55:24;23.33;;;6.93;;
1128;SDS011;553;51.038;7.216;2023-12-20T09:57:52;12.83;;;6.30;;
1128;SDS011;553;51.038;7.216;2023-12-20T10:00:19;23.27;;;5.93;;
1128;SDS011;553;51.038;7.216;2023-12-20T10:02:49;16.53;;;6.60;;
1128;SDS011;553;51.038;7.216;2023-12-20T10:05:27;23.23;;;6.07;;
1128;SDS011;553;51.038;7.216;2023-12-20T10:07:55;25.03;;;6.73;;
1128;SDS011;553;51.038;7.216;2023-12-20T10:10:23;17.13;;;5.70;;
1128;SDS011;553;51.038;7.216;2023-12-20T10:13:07;14.57;;;5.80;;
1128;SDS011;553;51.038;7.216;2023-12-20T10:15:35;13.07;;;5.70;;
1128;SDS011;553;51.038;7.216;2023-12-20T10:18:02;14.80;;;5.70;;
1128;SDS011;553;51.038;7.216;2023-12-20T10:20:30;11.43;;;5.07;;
1128;SDS011;553;51.038;7.216;2023-12-20T10:22:58;17.10;;;6.07;;
1128;SDS011;553;51.038;7.216;2023-12-20T10:25:26;19.93;;;5.80;;
1128;SDS011;553;51.038;7.216;2023-12-20T10:28:09;14.60;;;5.53;;
1128;SDS011;553;51.038;7.216;2023-12-20T10:30:41;15.83;;;6.17;;
1128;SDS011;553;51.038;7.216;2023-12-20T10:33:09;18.83;;;7.30;;
1128;SDS011;553;51.038;7.216;2023-12-20T10:35:38;17.57;;;5.47;;
1128;SDS011;553;51.038;7.216;2023-12-20T10:38:11;12.93;;;4.60;;
1128;SDS011;553;51.038;7.216;2023-12-20T10:40:39;12.03;;;5.23;;
1128;SDS011;553;51.038;7.216;2023-12-20T10:43:06;9.23;;;4.60;;
1128;SDS011;553;51.038;7.216;2023-12-20T10:45:34;15.53;;;5.40;;
1128;SDS011;553;51.038;7.216;2023-12-20T10:48:01;11.17;;;4.77;;
1128;SDS011;553;51.038;7.216;2023-12-20T10:50:30;16.70;;;4.60;;
1128;SDS011;553;51.038;7.216;2023-12-20T10:52:59;10.13;;;5.13;;
1128;SDS011;553;51.038;7.216;2023-12-20T10:55:27;20.60;;;6.10;;
1128;SDS011;553;51.038;7.216;2023-12-20T10:57:58;13.20;;;4.77;;
1128;SDS011;553;51.038;7.216;2023-12-20T11:00:28;14.03;;;5.47;;
1128;SDS011;553;51.038;7.216;2023-12-20T11:02:58;17.17;;;5.40;;
1128;SDS011;553;51.038;7.216;2023-12-20T11:08:09;11.47;;;5.50;;
1128;SDS011;553;51.038;7.216;2023-12-20T11:11:06;10.77;;;4.87;;
1128;SDS011;553;51.038;7.216;2023-12-20T11:13:37;13.57;;;6.13;;
1128;SDS011;553;51.038;7.216;2023-12-20T11:16:11;11.80;;;5.63;;
1128;SDS011;553;51.038;7.216;2023-12-20T11:18:38;10.90;;;4.80;;
1128;SDS011;553;51.038;7.216;2023-12-20T11:21:07;16.93;;;7.10;;
1128;SDS011;553;51.038;7.216;2023-12-20T11:23:35;16.17;;;6.47;;
1128;SDS011;553;51.038;7.216;2023-12-20T11:26:02;21.07;;;7.00;;
1128;SDS011;553;51.038;7.216;2023-12-20T11:28:29;13.10;;;6.87;;
1128;SDS011;553;51.038;7.216;2023-12-20T11:30:57;15.57;;;5.93;;
1128;SDS011;553;51.038;7.216;2023-12-20T11:33:27;19.67;;;6.67;;
1128;SDS011;553;51.038;7.216;2023-12-20T11:36:02;9.90;;;5.10;;
1128;SDS011;553;51.038;7.216;2023-12-20T11:38:36;17.57;;;6.50;;
1128;SDS011;553;51.038;7.216;2023-12-20T11:41:06;14.43;;;5.43;;
1128;SDS011;553;51.038;7.216;2023-12-20T11:43:36;9.80;;;5.03;;
1128;SDS011;553;51.038;7.216;2023-12-20T11:46:04;15.60;;;5.20;;
1128;SDS011;553;51.038;7.216;2023-12-20T11:48:34;20.70;;;6.00;;
1128;SDS011;553;51.038;7.216;2023-12-20T11:51:08;22.27;;;4.87;;
1128;SDS011;553;51.038;7.216;2023-12-20T11:53:36;7.40;;;5.30;;
1128;SDS011;553;51.038;7.216;2023-12-20T11:56:06;11.40;;;4.93;;
1128;SDS011;553;51.038;7.216;2023-12-20T11:58:34;11.47;;;5.63;;
1128;SDS011;553;51.038;7.216;2023-12-20T12:01:01;12.90;;;5.67;;
1128;SDS011;553;51.038;7.216;2023-12-20T12:03:29;19.80;;;6.83;;
1128;SDS011;553;51.038;7.216;2023-12-20T12:05:55;13.17;;;5.27;;
1128;SDS011;553;51.038;7.216;2023-12-20T12:08:24;17.50;;;6.10;;
1128;SDS011;553;51.038;7.216;2023-12-20T12:10:51;14.97;;;5.90;;
1128;SDS011;553;51.038;7.216;2023-12-20T12:13:18;17.57;;;6.60;;
1128;SDS011;553;51.038;7.216;2023-12-20T12:15:45;14.13;;;5.50;;
1128;SDS011;553;51.038;7.216;2023-12-20T12:18:15;16.97;;;6.83;;
1128;SDS011;553;51.038;7.216;2023-12-20T12:20:42;13.70;;;5.30;;
1128;SDS011;553;51.038;7.216;2023-12-20T12:23:10;14.10;;;5.77;;
1128;SDS011;553;51.038;7.216;2023-12-20T12:25:37;18.93;;;6.97;;
1128;SDS011;553;51.038;7.216;2023-12-20T12:28:08;15.60;;;5.90;;
1128;SDS011;553;51.038;7.216;2023-12-20T12:30:36;16.10;;;6.53;;
1128;SDS011;553;51.038;7.216;2023-12-20T12:33:11;14.90;;;5.97;;
1128;SDS011;553;51.038;7.216;2023-12-20T12:35:39;17.50;;;6.20;;
1128;SDS011;553;51.038;7.216;2023-12-20T12:38:07;11.13;;;6.10;;
1128;SDS011;553;51.038;7.216;2023-12-20T12:40:35;18.00;;;7.20;;
1128;SDS011;553;51.038;7.216;2023-12-20T12:43:02;22.70;;;8.43;;
1128;SDS011;553;51.038;7.216;2023-12-20T12:45:30;16.20;;;7.87;;
1128;SDS011;553;51.038;7.216;2023-12-20T12:47:57;24.73;;;8.83;;
1128;SDS011;553;51.038;7.216;2023-12-20T12:50:24;22.77;;;12.37;;
1128;SDS011;553;51.038;7.216;2023-12-20T12:52:51;27.70;;;15.70;;
1128;SDS011;553;51.038;7.216;2023-12-20T12:55:17;19.60;;;9.87;;
1128;SDS011;553;51.038;7.216;2023-12-20T12:57:44;22.00;;;10.43;;
1128;SDS011;553;51.038;7.216;2023-12-20T13:00:12;20.03;;;8.90;;
1128;SDS011;553;51.038;7.216;2023-12-20T13:02:39;19.47;;;9.93;;
1128;SDS011;553;51.038;7.216;2023-12-20T13:05:08;41.03;;;20.67;;
1128;SDS011;553;51.038;7.216;2023-12-20T13:07:35;19.70;;;11.43;;
1128;SDS011;553;51.038;7.216;2023-12-20T13:10:04;23.73;;;12.07;;
1128;SDS011;553;51.038;7.216;2023-12-20T13:12:32;26.70;;;9.40;;
1128;SDS011;553;51.038;7.216;2023-12-20T13:14:59;26.00;;;13.67;;
1128;SDS011;553;51.038;7.216;2023-12-20T13:17:25;25.80;;;12.50;;
1128;SDS011;553;51.038;7.216;2023-12-20T13:19:55;19.93;;;11.67;;
1128;SDS011;553;51.038;7.216;2023-12-20T13:22:22;17.37;;;10.37;;
1128;SDS011;553;51.038;7.216;2023-12-20T13:24:49;36.10;;;16.50;;
1128;SDS011;553;51.038;7.216;2023-12-20T13:27:16;49.23;;;25.27;;
1128;SDS011;553;51.038;7.216;2023-12-20T13:29:43;26.30;;;12.53;;
1128;SDS011;553;51.038;7.216;2023-12-20T13:32:10;19.50;;;8.03;;
1128;SDS011;553;51.038;7.216;2023-12-20T13:34:37;24.13;;;12.50;;
1128;SDS011;553;51.038;7.216;2023-12-20T13:37:04;27.80;;;14.83;;
1128;SDS011;553;51.038;7.216;2023-12-20T13:39:31;17.47;;;9.77;;
1128;SDS011;553;51.038;7.216;2023-12-20T13:41:58;20.53;;;14.57;;
1128;SDS011;553;51.038;7.216;2023-12-20T13:44:26;39.83;;;23.93;;
1128;SDS011;553;51.038;7.216;2023-12-20T13:46:53;24.20;;;15.70;;
1128;SDS011;553;51.038;7.216;2023-12-20T13:49:20;24.43;;;15.03;;
1128;SDS011;553;51.038;7.216;2023-12-20T13:51:51;29.40;;;15.03;;
1128;SDS011;553;51.038;7.216;2023-12-20T13:54:20;18.80;;;8.07;;
1128;SDS011;553;51.038;7.216;2023-12-20T13:56:48;19.47;;;9.57;;
1128;SDS011;553;51.038;7.216;2023-12-20T13:59:33;20.90;;;8.03;;
1128;SDS011;553;51.038;7.216;2023-12-20T14:02:01;17.60;;;8.67;;
1128;SDS011;553;51.038;7.216;2023-12-20T14:04:29;19.10;;;8.80;;
1128;SDS011;553;51.038;7.216;2023-12-20T14:07:08;14.97;;;9.37;;
1128;SDS011;553;51.038;7.216;2023-12-20T14:09:37;19.33;;;8.90;;
1128;SDS011;553;51.038;7.216;2023-12-20T14:12:04;17.53;;;8.70;;
1128;SDS011;553;51.038;7.216;2023-12-20T14:14:31;19.60;;;8.00;;
1128;SDS011;553;51.038;7.216;2023-12-20T14:16:58;14.67;;;8.37;;
1128;SDS011;553;51.038;7.216;2023-12-20T14:19:25;26.33;;;10.23;;
1128;SDS011;553;51.038;7.216;2023-12-20T14:21:52;16.80;;;7.90;;
1128;SDS011;553;51.038;7.216;2023-12-20T14:24:19;17.47;;;8.60;;
1128;SDS011;553;51.038;7.216;2023-12-20T14:26:46;19.90;;;8.90;;
1128;SDS011;553;51.038;7.216;2023-12-20T14:29:12;16.03;;;10.07;;
1128;SDS011;553;51.038;7.216;2023-12-20T14:31:39;16.17;;;8.63;;
1128;SDS011;553;51.038;7.216;2023-12-20T14:34:07;20.67;;;7.87;;
1128;SDS011;553;51.038;7.216;2023-12-20T14:36:34;16.53;;;8.77;;
1128;SDS011;553;51.038;7.216;2023-12-20T14:39:01;17.00;;;10.73;;
1128;SDS011;553;51.038;7.216;2023-12-20T14:41:29;13.63;;;7.90;;
1128;SDS011;553;51.038;7.216;2023-12-20T14:43:58;16.83;;;8.47;;
1128;SDS011;553;51.038;7.216;2023-12-20T14:46:26;15.00;;;7.90;;
1128;SDS011;553;51.038;7.216;2023-12-20T14:48:53;20.33;;;8.70;;
1128;SDS011;553;51.038;7.216;2023-12-20T14:51:19;14.40;;;9.20;;
1128;SDS011;553;51.038;7.216;2023-12-20T14:53:46;16.50;;;7.57;;
1128;SDS011;553;51.038;7.216;2023-12-20T14:56:13;24.07;;;9.13;;
1128;SDS011;553;51.038;7.216;2023-12-20T14:58:41;18.50;;;9.10;;
1128;SDS011;553;51.038;7.216;2023-12-20T15:01:08;16.53;;;9.53;;
1128;SDS011;553;51.038;7.216;2023-12-20T15:03:35;11.67;;;9.13;;
1128;SDS011;553;51.038;7.216;2023-12-20T15:06:02;18.93;;;10.20;;
1128;SDS011;553;51.038;7.216;2023-12-20T15:08:29;16.97;;;10.13;;
1128;SDS011;553;51.038;7.216;2023-12-20T15:10:56;20.50;;;12.27;;
1128;SDS011;553;51.038;7.216;2023-12-20T15:13:23;12.13;;;8.80;;
1128;SDS011;553;51.038;7.216;2023-12-20T15:15:50;15.53;;;9.80;;